WHSE22 YBTL-YBTL
Flight info
| Callsign | WHSE22 |
|---|---|
| Flight time | 0h 21m |
| Altitude | 2500 |
| Route | DCT |
| Aircraft | H47/M-SGWR/I |
Departure
| Time | 2026-04-21 04:01 |
|---|---|
| Airport | Townsville Airport / RAAF Base Townsville (YBTL) |
Arrival
| Time | 2026-04-21 04:23 |
|---|---|
| Airport | Townsville Airport / RAAF Base Townsville (YBTL) |
| Time | Latitude | Longitude | Altitude | Speed | Heading |
|---|---|---|---|---|---|
| 2026-04-21 03:59 | -19.25732 | 146.75887 | 17 ft | 0 kts | 95° |
| 2026-04-21 04:00 | -19.25729 | 146.75917 | 16 ft | 7 kts | 25° |
| 2026-04-21 04:00 | -19.25675 | 146.75894 | 15 ft | 13 kts | 275° |
| 2026-04-21 04:00 | -19.25665 | 146.75723 | 35 ft | 36 kts | 284° |
| 2026-04-21 04:01 | -19.25536 | 146.75379 | 175 ft | 69 kts | 313° |
| 2026-04-21 04:01 | -19.24982 | 146.75017 | 350 ft | 112 kts | 346° |
| 2026-04-21 04:01 | -19.24223 | 146.74715 | 517 ft | 118 kts | 351° |
| 2026-04-21 04:01 | -19.23432 | 146.74452 | 721 ft | 120 kts | 356° |
| 2026-04-21 04:02 | -19.22636 | 146.74186 | 929 ft | 129 kts | 340° |
| 2026-04-21 04:02 | -19.22295 | 146.73217 | 709 ft | 153 kts | 281° |
| 2026-04-21 04:02 | -19.22205 | 146.72095 | 615 ft | 155 kts | 277° |
| 2026-04-21 04:02 | -19.22157 | 146.70947 | 516 ft | 157 kts | 275° |
| 2026-04-21 04:03 | -19.22047 | 146.69796 | 341 ft | 158 kts | 282° |
| 2026-04-21 04:03 | -19.21914 | 146.68720 | 379 ft | 132 kts | 287° |
| 2026-04-21 04:03 | -19.21611 | 146.67862 | 743 ft | 126 kts | 304° |
| 2026-04-21 04:03 | -19.21269 | 146.66940 | 878 ft | 144 kts | 298° |
| 2026-04-21 04:04 | -19.20866 | 146.65899 | 970 ft | 159 kts | 296° |
| 2026-04-21 04:04 | -19.20494 | 146.64793 | 1067 ft | 157 kts | 289° |
| 2026-04-21 04:04 | -19.20275 | 146.63684 | 1227 ft | 154 kts | 284° |
| 2026-04-21 04:04 | -19.19821 | 146.62629 | 703 ft | 164 kts | 302° |
| 2026-04-21 04:05 | -19.19277 | 146.61638 | 587 ft | 140 kts | 302° |
| 2026-04-21 04:05 | -19.18955 | 146.60760 | 1192 ft | 120 kts | 295° |
| 2026-04-21 04:05 | -19.18623 | 146.59910 | 1546 ft | 139 kts | 300° |
| 2026-04-21 04:05 | -19.18206 | 146.58861 | 1068 ft | 165 kts | 292° |
| 2026-04-21 04:06 | -19.17985 | 146.57652 | 551 ft | 163 kts | 285° |
| 2026-04-21 04:06 | -19.17703 | 146.56561 | 606 ft | 148 kts | 293° |
| 2026-04-21 04:06 | -19.17347 | 146.55577 | 861 ft | 145 kts | 302° |
| 2026-04-21 04:06 | -19.16616 | 146.54797 | 753 ft | 154 kts | 330° |
| 2026-04-21 04:07 | -19.15674 | 146.54236 | 539 ft | 154 kts | 337° |
| 2026-04-21 04:07 | -19.14882 | 146.53562 | 500 ft | 143 kts | 312° |
| 2026-04-21 04:07 | -19.14554 | 146.52621 | 685 ft | 128 kts | 283° |
| 2026-04-21 04:07 | -19.14936 | 146.51859 | 932 ft | 130 kts | 223° |
| 2026-04-21 04:08 | -19.15714 | 146.51335 | 1151 ft | 131 kts | 206° |
| 2026-04-21 04:08 | -19.16523 | 146.50977 | 1519 ft | 123 kts | 198° |
| 2026-04-21 04:08 | -19.17271 | 146.50502 | 1844 ft | 127 kts | 213° |
| 2026-04-21 04:08 | -19.17866 | 146.49873 | 1721 ft | 112 kts | 220° |
| 2026-04-21 04:09 | -19.18453 | 146.49498 | 518 ft | 92 kts | 196° |
| 2026-04-21 04:09 | -19.18942 | 146.49362 | 234 ft | 48 kts | 188° |
| 2026-04-21 04:09 | -19.19075 | 146.49310 | 154 ft | 3 kts | 198° |
| 2026-04-21 04:09 | -19.19083 | 146.49335 | 110 ft | 3 kts | 214° |
| 2026-04-21 04:10 | -19.19083 | 146.49339 | 105 ft | 0 kts | 216° |
| 2026-04-21 04:13 | -19.19353 | 146.49207 | 228 ft | 101 kts | 199° |
| 2026-04-21 04:13 | -19.20265 | 146.49055 | 710 ft | 151 kts | 174° |
| 2026-04-21 04:13 | -19.21004 | 146.49796 | 979 ft | 158 kts | 117° |
| 2026-04-21 04:14 | -19.21383 | 146.50802 | 957 ft | 137 kts | 98° |
| 2026-04-21 04:14 | -19.21195 | 146.51764 | 903 ft | 136 kts | 63° |
| 2026-04-21 04:14 | -19.20478 | 146.52378 | 950 ft | 132 kts | 36° |
| 2026-04-21 04:14 | -19.19724 | 146.52973 | 1009 ft | 135 kts | 38° |
| 2026-04-21 04:15 | -19.19084 | 146.53593 | 1340 ft | 117 kts | 47° |
| 2026-04-21 04:15 | -19.18587 | 146.54257 | 1065 ft | 110 kts | 50° |
| 2026-04-21 04:15 | -19.18163 | 146.54869 | 942 ft | 95 kts | 50° |
| 2026-04-21 04:15 | -19.17815 | 146.55380 | 1016 ft | 90 kts | 44° |
| 2026-04-21 04:16 | -19.17291 | 146.55795 | 858 ft | 97 kts | 34° |
| 2026-04-21 04:16 | -19.16667 | 146.56257 | 731 ft | 121 kts | 35° |
| 2026-04-21 04:16 | -19.15903 | 146.56640 | 716 ft | 111 kts | 26° |
| 2026-04-21 04:16 | -19.15686 | 146.57273 | 557 ft | 120 kts | 110° |
| 2026-04-21 04:17 | -19.16336 | 146.57937 | 725 ft | 132 kts | 129° |
| 2026-04-21 04:17 | -19.17012 | 146.58568 | 991 ft | 131 kts | 133° |
| 2026-04-21 04:17 | -19.17687 | 146.59293 | 1010 ft | 145 kts | 126° |
| 2026-04-21 04:17 | -19.18275 | 146.60120 | 1006 ft | 134 kts | 122° |
| 2026-04-21 04:18 | -19.18867 | 146.60843 | 585 ft | 120 kts | 124° |
| 2026-04-21 04:18 | -19.19346 | 146.61566 | 780 ft | 126 kts | 116° |
| 2026-04-21 04:18 | -19.19875 | 146.62320 | 680 ft | 128 kts | 120° |
| 2026-04-21 04:18 | -19.20452 | 146.63045 | 748 ft | 134 kts | 121° |
| 2026-04-21 04:19 | -19.21010 | 146.63835 | 746 ft | 136 kts | 119° |
| 2026-04-21 04:19 | -19.21548 | 146.64651 | 692 ft | 136 kts | 113° |
| 2026-04-21 04:19 | -19.22036 | 146.65463 | 902 ft | 124 kts | 117° |
| 2026-04-21 04:19 | -19.22562 | 146.66199 | 876 ft | 126 kts | 119° |
| 2026-04-21 04:20 | -19.23084 | 146.66905 | 1003 ft | 123 kts | 121° |
| 2026-04-21 04:20 | -19.23622 | 146.67656 | 977 ft | 128 kts | 121° |
| 2026-04-21 04:20 | -19.24189 | 146.68366 | 1006 ft | 128 kts | 121° |
| 2026-04-21 04:20 | -19.24665 | 146.69164 | 904 ft | 127 kts | 109° |
| 2026-04-21 04:21 | -19.25008 | 146.70022 | 895 ft | 128 kts | 105° |
| 2026-04-21 04:21 | -19.25330 | 146.70934 | 789 ft | 134 kts | 101° |
| 2026-04-21 04:21 | -19.25499 | 146.71860 | 836 ft | 125 kts | 87° |
| 2026-04-21 04:21 | -19.25596 | 146.72804 | 778 ft | 131 kts | 97° |
| 2026-04-21 04:22 | -19.25778 | 146.73644 | 671 ft | 101 kts | 89° |
| 2026-04-21 04:22 | -19.25786 | 146.74298 | 618 ft | 80 kts | 81° |
| 2026-04-21 04:22 | -19.25761 | 146.74811 | 553 ft | 58 kts | 66° |
| 2026-04-21 04:22 | -19.25708 | 146.75195 | 308 ft | 50 kts | 54° |
| 2026-04-21 04:23 | -19.25655 | 146.75458 | 179 ft | 19 kts | 33° |
| 2026-04-21 04:23 | -19.25637 | 146.75562 | 130 ft | 8 kts | 358° |
| 2026-04-21 04:23 | -19.25600 | 146.75551 | 79 ft | 4 kts | 17° |
| 2026-04-21 04:23 | -19.25583 | 146.75565 | 36 ft | 1 kts | 33° |
| 2026-04-21 04:24 | -19.25577 | 146.75569 | 32 ft | 2 kts | 52° |
| 2026-04-21 04:24 | -19.25567 | 146.75576 | 29 ft | 5 kts | 173° |
| 2026-04-21 04:24 | -19.25587 | 146.75580 | 19 ft | 2 kts | 213° |
| 2026-04-21 04:24 | -19.25626 | 146.75574 | 16 ft | 10 kts | 153° |
| 2026-04-21 04:25 | -19.25664 | 146.75663 | 15 ft | 16 kts | 95° |
| 2026-04-21 04:25 | -19.25673 | 146.75785 | 15 ft | 17 kts | 94° |
| 2026-04-21 04:25 | -19.25678 | 146.75882 | 15 ft | 7 kts | 103° |
| 2026-04-21 04:25 | -19.25695 | 146.75903 | 15 ft | 4 kts | 155° |
| 2026-04-21 04:26 | -19.25706 | 146.75907 | 15 ft | 0 kts | 169° |
| 2026-04-21 04:26 | -19.25730 | 146.75912 | 15 ft | 5 kts | 161° |
| 2026-04-21 04:26 | -19.25765 | 146.75920 | 15 ft | 5 kts | 184° |
| 2026-04-21 04:27 | -19.25800 | 146.75919 | 15 ft | 5 kts | 150° |
| 2026-04-21 04:27 | -19.25808 | 146.75954 | 15 ft | 2 kts | 96° |
| 2026-04-21 04:27 | -19.25809 | 146.75963 | 15 ft | 0 kts | 99° |